• Join FlightAware (Why Join?)
  • Login
  • US Flag 
08:55AM EDT


 

Airport Tracker/Info


-or-


 

Live Flight TrackerFlight Track Log ✈ ACA831 ✈ 25-Jun-2013 ✈ CYUL - CYYZ

Flight Track Log - Related Links

Times and Time Zones

All times are in EDT time to prevent confusion due to time zone crossing. See the ACA831 flight status page for this flight to view local times or setup timezone preferences in your user account.

Time Position Orientation Groundspeed Altitude Reporting Facility
EDT Latitude Longitude Course Direction KTS MPH feet Rate Location/Type
04:26PM 45.4333 -73.7500 254° West 170 196 2,300  Level Montreal Center
04:27PM 45.4000 -73.8167 235° Southwest 230 265 4,900 3,180 Climbing Montreal Center
04:28PM 45.4000 -73.9167 270° West 260 299 8,700 3,360 Climbing Montreal Center
04:29PM 45.4102 -74.4426 250° West  Level FlightAware Approximate
04:29PM 45.4000 -74.0333 270° West 290 334 11,700  Level Montreal Center
04:30PM 45.3771 -74.6125 235° Southwest  Level FlightAware Approximate
04:30PM 45.4000 -74.2167 270° West 350 403 16,900  Level Toronto Center
04:31PM 45.3499 -74.7838 254° West  Level FlightAware Approximate
04:31PM 45.4167 -74.3500 280° West 360 414 20,300  Level Toronto Center
04:32PM 45.3833 -74.5000 252° West 370 426 23,100 2,400 Climbing Toronto Center
04:33PM 45.3500 -74.6667 254° West 390 449 25,200 2,220 Climbing Toronto Center
04:34PM 45.3333 -74.8167 261° West 410 472 27,600 2,280 Climbing Toronto Center
04:35PM 45.3000 -74.9667 253° West 410 472 29,800 2,460 Climbing Toronto Center
04:36PM 45.2833 -75.1333 262° West 410 472 32,600 2,100 Climbing Toronto Center
04:37PM 45.2500 -75.3000 254° West 400 460 34,000 660 Climbing Toronto Center
04:38PM 45.2167 -75.4333 251° West 400 460 34,000  Level Toronto Center
04:39PM 45.2000 -75.5833 261° West 400 460 34,000  Level Toronto Center
04:40PM 45.1667 -75.7333 253° West 400 460 34,000  Level Toronto Center
04:41PM 45.1500 -75.8667 260° West 390 449 34,000  Level Toronto Center
04:42PM 45.1167 -76.0333 254° West 400 460 34,000  Level Toronto Center
04:43PM 45.1000 -76.1833 261° West 400 460 34,000  Level Toronto Center
04:44PM 45.0333 -76.3333 238° Southwest 400 460 34,000  Level Toronto Center
04:45PM 44.9833 -76.4500 239° Southwest 400 460 34,000  Level Toronto Center
04:46PM 44.9167 -76.6000 238° Southwest 400 460 34,000  Level Toronto Center
04:47PM 44.8833 -76.7333 251° West 400 460 34,000  Level Toronto Center
04:48PM 44.8500 -76.8833 253° West 390 449 34,000  Level Toronto Center
04:49PM 44.8167 -77.0167 251° West 390 449 34,000  Level Toronto Center
04:50PM 44.7833 -77.1833 254° West 400 460 34,000  Level Toronto Center
04:51PM 44.7333 -77.3333 245° Southwest 400 460 34,000 -300 Level Toronto Center
04:52PM 44.7167 -77.4667 260° West 390 449 33,400 -1,140 Descending Toronto Center
04:53PM 44.6833 -77.6167 253° West 380 437 31,800 -1,800 Descending Toronto Center
04:54PM 44.6333 -77.7333 239° Southwest 370 426 29,900 -1,980 Descending Toronto Center
04:55PM 44.5833 -77.8833 245° Southwest 360 414 27,900 -1,980 Descending Toronto Center
04:56PM 44.5333 -77.9667 230° Southwest 350 403 26,000 -1,920 Descending Toronto Center
04:57PM 44.4833 -78.0833 239° Southwest 350 403 24,100 -1,980 Descending Toronto Center
04:58PM 44.4333 -78.2000 239° Southwest 340 391 22,100 -1,920 Descending Toronto Center
04:59PM 44.4000 -78.3333 251° West 340 391 20,300 -1,920 Descending Toronto Center
05:00PM 44.3500 -78.4667 242° Southwest 340 391 18,300 -1,800 Descending Toronto Center
05:01PM 44.3167 -78.5667 245° Southwest 340 391 16,700 -1,560 Descending Toronto Center
05:02PM 44.2500 -78.6500 222° Southwest 340 391 15,200 -1,620 Descending Toronto Center
05:03PM 44.1667 -78.7333 216° Southwest 330 380 13,500 -1,740 Descending Toronto Center
05:04PM 44.1000 -78.8000 216° Southwest 320 368 11,800 -1,740 Descending Toronto Center
05:05PM 44.0333 -78.8667 216° Southwest 320 368 10,100 -1,200 Descending Toronto Center
05:06PM 43.9667 -78.9333 216° Southwest 290 334 9,400 -1,380 Descending Toronto Center
05:07PM 43.9000 -79.0000 216° Southwest 260 299 7,400 -1,140 Descending Toronto Center
05:09PM 43.8637 -79.1588 245° Southwest  Level FlightAware Approximate
05:09PM 43.8667 -79.1500 245° Southwest 220 253 6,000  Level Toronto Center
05:10PM 43.8833 -79.2167 289° West 200 230 5,000 -1,020 Descending Toronto Center
05:11PM 43.8667 -79.2833 251° West 200 230 4,000 -540 Descending Toronto Center
05:12PM 43.8333 -79.3500 235° Southwest 200 230 4,000  Level Toronto Center
05:13PM 43.7833 -79.4000 216° Southwest 190 219 4,000 -480 Level Toronto Center
05:14PM 43.7500 -79.4500 227° Southwest 170 196 3,100 -900 Descending Toronto Center